地図

経路データ

SID SEASON NUMBER BASIN SUBBASIN NAME ISO_TIME NATURE LAT LON WMO_WIND WMO_PRES WMO_AGENCY TRACK_TYPE DIST2LAND LANDFALL IFLAG USA_AGENCY USA_ATCF_ID USA_LAT USA_LON USA_RECORD USA_STATUS USA_WIND USA_PRES USA_SSHS USA_R34_NE USA_R34_SE USA_R34_SW USA_R34_NW USA_R50_NE USA_R50_SE USA_R50_SW USA_R50_NW USA_R64_NE USA_R64_SE USA_R64_SW USA_R64_NW USA_POCI USA_ROCI USA_RMW USA_EYE TOKYO_LAT TOKYO_LON TOKYO_GRADE TOKYO_WIND TOKYO_PRES TOKYO_R50_DIR TOKYO_R50_LONG TOKYO_R50_SHORT TOKYO_R30_DIR TOKYO_R30_LONG TOKYO_R30_SHORT TOKYO_LAND CMA_LAT CMA_LON CMA_CAT CMA_WIND CMA_PRES HKO_LAT HKO_LON HKO_CAT HKO_WIND HKO_PRES NEWDELHI_LAT NEWDELHI_LON NEWDELHI_GRADE NEWDELHI_WIND NEWDELHI_PRES NEWDELHI_CI NEWDELHI_DP NEWDELHI_POCI REUNION_LAT REUNION_LON REUNION_TYPE REUNION_WIND REUNION_PRES REUNION_TNUM REUNION_CI REUNION_RMW REUNION_R34_NE REUNION_R34_SE REUNION_R34_SW REUNION_R34_NW REUNION_R50_NE REUNION_R50_SE REUNION_R50_SW REUNION_R50_NW REUNION_R64_NE REUNION_R64_SE REUNION_R64_SW REUNION_R64_NW BOM_LAT BOM_LON BOM_TYPE BOM_WIND BOM_PRES BOM_TNUM BOM_CI BOM_RMW BOM_R34_NE BOM_R34_SE BOM_R34_SW BOM_R34_NW BOM_R50_NE BOM_R50_SE BOM_R50_SW BOM_R50_NW BOM_R64_NE BOM_R64_SE BOM_R64_SW BOM_R64_NW BOM_ROCI BOM_POCI BOM_EYE BOM_POS_METHOD BOM_PRES_METHOD NADI_LAT NADI_LON NADI_CAT NADI_WIND NADI_PRES WELLINGTON_LAT WELLINGTON_LON WELLINGTON_WIND WELLINGTON_PRES DS824_LAT DS824_LON DS824_STAGE DS824_WIND DS824_PRES TD9636_LAT TD9636_LON TD9636_STAGE TD9636_WIND TD9636_PRES TD9635_LAT TD9635_LON TD9635_WIND TD9635_PRES TD9635_ROCI NEUMANN_LAT NEUMANN_LON NEUMANN_CLASS NEUMANN_WIND NEUMANN_PRES MLC_LAT MLC_LON MLC_CLASS MLC_WIND MLC_PRES USA_GUST BOM_GUST BOM_GUST_PER REUNION_GUST REUNION_GUST_PER USA_SEAHGT USA_SEARAD_NE USA_SEARAD_SE USA_SEARAD_SW USA_SEARAD_NW STORM_SPEED STORM_DIR
1861052S08069 1861 9 SI MM NOT_NAMED 1861-02-21 06:00:00 NR -8.30000 69.0000 reunion main 1795 1779 _____O________ -1 -8.30000 69.0000 99 9.90000 3 225
1861052S08069 1861 9 SI MM NOT_NAMED 1861-02-21 09:00:00 NR -8.42179 68.8743 main 1779 1764 _____P________ -1 -8.42179 68.8743 99 4 225
1861052S08069 1861 9 SI MM NOT_NAMED 1861-02-21 12:00:00 NR -8.55100 68.7427 main 1748 1732 _____P________ -1 -8.55100 68.7427 99 4 225
1861052S08069 1861 9 SI MM NOT_NAMED 1861-02-21 15:00:00 NR -8.69510 68.5994 main 1732 1717 _____P________ -1 -8.69510 68.5994 99 4 217
1861052S08069 1861 9 SI MM NOT_NAMED 1861-02-21 18:00:00 NR -8.82924 68.5308 main 1717 1692 _____P____O___ -1 -8.86155 68.4385 99 -8.70000 68.9000 7 4 211
1861052S08069 1861 9 SI MM NOT_NAMED 1861-02-21 21:00:00 NR -9.03646 68.3898 main 1692 1653 _____P____P___ -1 -9.05782 68.2542 99 -8.99375 68.6611 7 6 215
1861052S08069 1861 9 SI MM NOT_NAMED 1861-02-22 00:00:00 NR -9.29504 68.1977 main 1653 1613 _____P____P___ -1 -9.29136 68.0403 99 -9.29996 68.4076 7 7 217
1861052S08069 1861 9 SI MM NOT_NAMED 1861-02-22 03:00:00 NR -9.60040 67.9582 main 1613 1566 _____P____P___ -1 -9.56961 67.7909 99 -9.63120 68.1254 7 9 219
1861052S08069 1861 9 SI MM NOT_NAMED 1861-02-22 06:00:00 NR -9.95000 67.6500 reunion main 1566 1503 _____O____O___ -1 -9.90000 67.5000 99 9.90000 -10.0000 67.8000 7 10 221
1861052S08069 1861 9 SI MM NOT_NAMED 1861-02-22 09:00:00 NR -10.3515 67.2928 main 1495 1433 _____P____P___ -1 -10.2874 67.1636 99 -10.4157 67.4220 7 11 221
1861052S08069 1861 9 SI MM NOT_NAMED 1861-02-22 12:00:00 NR -10.8007 66.8944 main 1433 1362 _____P____P___ -1 -10.7263 66.7868 99 -10.8751 67.0021 7 12 221
1861052S08069 1861 9 SI MM NOT_NAMED 1861-02-22 15:00:00 NR -11.2904 66.4666 main 1362 1284 _____P____P___ -1 -11.2088 66.3771 99 -11.3719 66.5561 7 13 220
1861052S08069 1861 9 SI MM NOT_NAMED 1861-02-22 18:00:00 NR -11.8135 66.0211 main 1284 1213 _____P____O___ -1 -11.7270 65.9421 99 -11.9000 66.1000 7 14 219
1861052S08069 1861 9 SI MM NOT_NAMED 1861-02-22 21:00:00 NR -12.3636 65.5712 main 1205 1127 _____P____P___ -1 -12.2730 65.4893 99 -12.4543 65.6530 7 14 218
1861052S08069 1861 9 SI MM NOT_NAMED 1861-02-23 00:00:00 NR -12.9369 65.1130 main 1127 1048 _____P____P___ -1 -12.8390 65.0262 99 -13.0349 65.1998 7 15 218
1861052S08069 1861 9 SI MM NOT_NAMED 1861-02-23 03:00:00 NR -13.5201 64.6536 main 1048 963 _____P____P___ -1 -13.4172 64.5606 99 -13.6230 64.7467 7 15 217
1861052S08069 1861 9 SI MM NOT_NAMED 1861-02-23 06:00:00 NR -14.1000 64.2000 reunion main 963 893 _____O____O___ -1 -14.0000 64.1000 99 9.90000 -14.2000 64.3000 7 14 218
1861052S08069 1861 9 SI MM NOT_NAMED 1861-02-23 09:00:00 NR -14.6478 63.7570 main 893 807 _____P____P___ -1 -14.5727 63.6512 99 -14.7229 63.8628 7 14 218
1861052S08069 1861 9 SI MM NOT_NAMED 1861-02-23 12:00:00 NR -15.1967 63.3165 main 807 738 _____P____P___ -1 -15.1587 63.1994 99 -15.2347 63.4336 7 14 217
1861052S08069 1861 9 SI MM NOT_NAMED 1861-02-23 15:00:00 NR -15.7529 62.8810 main 730 661 _____P____P___ -1 -15.7517 62.7492 99 -15.7542 63.0127 7 14 216
1861052S08069 1861 9 SI MM NOT_NAMED 1861-02-23 18:00:00 NR -16.3227 62.4529 main 661 577 _____P____O___ -1 -16.3454 62.3057 99 -16.3000 62.6000 7 14 215
1861052S08069 1861 9 SI MM NOT_NAMED 1861-02-23 21:00:00 NR -16.9330 62.0234 main 577 503 _____P____P___ -1 -16.9334 61.8738 99 -16.9327 62.1730 7 15 213
1861052S08069 1861 9 SI MM NOT_NAMED 1861-02-24 00:00:00 NR -17.5484 61.6073 main 503 430 _____P____P___ -1 -17.5093 61.4587 99 -17.5874 61.7558 7 14 213
1861052S08069 1861 9 SI MM NOT_NAMED 1861-02-24 03:00:00 NR -18.1452 61.2131 main 430 370 _____P____P___ -1 -18.0669 61.0656 99 -18.2234 61.3606 7 14 212
1861052S08069 1861 9 SI MM NOT_NAMED 1861-02-24 06:00:00 NR -18.7000 60.8500 reunion main 370 322 _____O____O___ -1 -18.6000 60.7000 99 9.90000 -18.8000 61.0000 7 12 212
1861052S08069 1861 9 SI MM NOT_NAMED 1861-02-24 09:00:00 NR -19.1668 60.5343 main 308 272 _____P____P___ -1 -19.0775 60.3811 99 -19.2560 60.6875 7 11 212
1861052S08069 1861 9 SI MM NOT_NAMED 1861-02-24 12:00:00 NR -19.5914 60.2509 main 272 232 _____P____P___ -1 -19.5309 60.0913 99 -19.6518 60.4105 7 10 212
1861052S08069 1861 9 SI MM NOT_NAMED 1861-02-24 15:00:00 NR -19.9943 59.9888 main 232 208 _____P____P___ -1 -19.9668 59.8243 99 -20.0217 60.1533 7 9 211
1861052S08069 1861 9 SI MM NOT_NAMED 1861-02-24 18:00:00 NR -20.3957 59.7368 main 198 182 _____P____O___ -1 -20.3913 59.5736 99 -20.4000 59.9000 7 9 210
1861052S08069 1861 9 SI MM NOT_NAMED 1861-02-24 21:00:00 NR -20.8149 59.4883 main 185 179 _____P____P___ -1 -20.8107 59.3325 99 -20.8190 59.6442 7 10 209
1861052S08069 1861 9 SI MM NOT_NAMED 1861-02-25 00:00:00 NR -21.2428 59.2401 main 174 174 _____P____P___ -1 -21.2312 59.0944 99 -21.2545 59.3857 7 10 209
1861052S08069 1861 9 SI MM NOT_NAMED 1861-02-25 03:00:00 NR -21.6858 58.9810 main 190 190 _____P____P___ -1 -21.6590 58.8526 99 -21.7127 59.1095 7 10 209
1861052S08069 1861 9 SI MM NOT_NAMED 1861-02-25 06:00:00 NR -22.1500 58.7000 reunion main 206 211 _____O____O___ -1 -22.1000 58.6000 99 9.90000 -22.2000 58.8000 7 11 211
1861052S08069 1861 9 SI MM NOT_NAMED 1861-02-25 09:00:00 NR -22.6554 58.3535 main 256 253 _____P____P___ -1 -22.5769 58.2983 99 -22.7340 58.4086 7 12 213
1861052S08069 1861 9 SI MM NOT_NAMED 1861-02-25 12:00:00 NR -23.1788 57.9870 main 303 302 _____P____P___ -1 -23.0643 57.9874 99 -23.2933 57.9866 7 13 213
1861052S08069 1861 9 SI MM NOT_NAMED 1861-02-25 15:00:00 NR -23.7082 57.6206 main 325 325 _____P____P___ -1 -23.5604 57.6701 99 -23.8559 57.5711 7 12 212
1861052S08069 1861 9 SI MM NOT_NAMED 1861-02-25 18:00:00 NR -24.2315 57.2749 main 358 358 _____P____O___ -1 -24.0631 57.3497 99 -24.4000 57.2000 7 12 210
1861052S08069 1861 9 SI MM NOT_NAMED 1861-02-25 21:00:00 NR -24.7270 56.9819 main 395 395 _____P____P___ -1 -24.5703 57.0292 99 -24.8836 56.9346 7 11 207
1861052S08069 1861 9 SI MM NOT_NAMED 1861-02-26 00:00:00 NR -25.2146 56.7144 main 439 439 _____P____P___ -1 -25.0801 56.7119 99 -25.3490 56.7169 7 11 206
1861052S08069 1861 9 SI MM NOT_NAMED 1861-02-26 03:00:00 NR -25.7028 56.4585 main 489 487 _____P____P___ -1 -25.5907 56.4011 99 -25.8149 56.5159 7 11 205
1861052S08069 1861 9 SI MM NOT_NAMED 1861-02-26 06:00:00 NR -26.2000 56.2000 reunion main 539 539 _____O____O___ -1 -26.1000 56.1000 99 9.90000 -26.3000 56.3000 7 12 206
1861052S08069 1861 9 SI MM NOT_NAMED 1861-02-26 09:00:00 NR -26.7394 55.9050 main 593 593 _____P____P___ -1 -26.6339 55.8001 99 -26.8448 56.0100 7 12 206
1861052S08069 1861 9 SI MM NOT_NAMED 1861-02-26 12:00:00 NR -27.2900 55.6038 main 659 659 _____P____P___ -1 -27.1723 55.5068 99 -27.4078 55.7009 7 12 206
1861052S08069 1861 9 SI MM NOT_NAMED 1861-02-26 15:00:00 NR -27.8374 55.3065 main 715 715 _____P____P___ -1 -27.7081 55.2218 99 -27.9668 55.3912 7 12 205
1861052S08069 1861 9 SI MM NOT_NAMED 1861-02-26 18:00:00 NR -28.3671 55.0237 main 784 784 _____P____O___ -1 -28.2343 54.9474 99 -28.5000 55.1000 7 11 205
1861052S08069 1861 9 SI MM NOT_NAMED 1861-02-26 21:00:00 NR -28.8732 54.7651 main 841 841 _____P____P___ -1 -28.7436 54.6856 99 -29.0028 54.8445 7 11 204
1861052S08069 1861 9 SI MM NOT_NAMED 1861-02-27 00:00:00 NR -29.3519 54.5252 main 880 878 _____P____P___ -1 -29.2291 54.4388 99 -29.4746 54.6116 7 10 203
1861052S08069 1861 9 SI MM NOT_NAMED 1861-02-27 03:00:00 NR -29.7964 54.3037 main 889 887 _____P____P___ -1 -29.6836 54.2094 99 -29.9092 54.3979 7 9 204
1861052S08069 1861 9 SI MM NOT_NAMED 1861-02-27 06:00:00 NR -30.2000 54.1000 reunion main 900 900 _____O____O___ -1 -30.1000 54.0000 99 9.90000 -30.3000 54.2000 7 8 204
1861052S08069 1861 9 SI MM NOT_NAMED 1861-02-27 09:00:00 NR -30.5681 53.8999 main 914 914 _____P____P___ -1 -30.4770 53.8020 99 -30.6592 53.9979 7 8 205
1861052S08069 1861 9 SI MM NOT_NAMED 1861-02-27 12:00:00 NR -30.8967 53.7182 main 922 922 _____P____P___ -1 -30.8186 53.6246 99 -30.9749 53.8119 7 7 205
1861052S08069 1861 9 SI MM NOT_NAMED 1861-02-27 15:00:00 NR -31.1905 53.5556 main 938 931 _____P____P___ -1 -31.1280 53.4663 99 -31.2530 53.6450 7 6 205
1861052S08069 1861 9 SI MM NOT_NAMED 1861-02-27 18:00:00 NR -31.4541 53.4127 main 949 949 _____P____O___ -1 -31.4083 53.3253 99 -31.5000 53.5000 7 6 204
1861052S08069 1861 9 SI MM NOT_NAMED 1861-02-27 21:00:00 NR -31.6923 53.2892 main 959 959 _____P____P___ -1 -31.6626 53.2000 99 -31.7219 53.3783 7 5 205
1861052S08069 1861 9 SI MM NOT_NAMED 1861-02-28 00:00:00 NR -31.9073 53.1686 main 970 964 _____P____P___ -1 -31.8940 53.0886 99 -31.9250 53.2753 7 5 205
1861052S08069 1861 9 SI MM NOT_NAMED 1861-02-28 03:00:00 NR -32.1088 53.0543 main 981 975 _____P____P___ -1 -32.1054 52.9892 99 -32.1157 53.1846 7 4 206
1861052S08069 1861 9 SI MM NOT_NAMED 1861-02-28 06:00:00 NR -32.3000 52.9400 reunion main 987 987 _____O____O___ -1 -32.3000 52.9000 99 9.90000 -32.3000 53.1000 7 4 208
1861052S08069 1861 9 SI MM NOT_NAMED 1861-02-28 09:00:00 NR -32.4804 52.8193 main 1000 1000 _____P________ -1 -32.4804 52.8193 99 7 4 205
1861052S08069 1861 9 SI MM NOT_NAMED 1861-02-28 12:00:00 NR -32.6487 52.7458 main 1003 1003 _____P________ -1 -32.6487 52.7458 99 7 3 200
1861052S08069 1861 9 SI MM NOT_NAMED 1861-02-28 15:00:00 NR -32.8065 52.6786 main 1022 1022 _____P________ -1 -32.8065 52.6786 99 7 3 200
1861052S08069 1861 9 SI MM NOT_NAMED 1861-02-28 18:00:00 NR -32.9557 52.6167 main 1035 1035 _____P________ -1 -32.9557 52.6167 99 3 198
1861052S08069 1861 9 SI MM NOT_NAMED 1861-02-28 21:00:00 NR -33.0979 52.5589 main 1044 1039 _____P________ -1 -33.0979 52.5589 99 3 199
1861052S08069 1861 9 SI MM NOT_NAMED 1861-03-01 00:00:00 NR -33.2348 52.5043 main 1049 1049 _____P________ -1 -33.2348 52.5043 99 3 199
1861052S08069 1861 9 SI MM NOT_NAMED 1861-03-01 03:00:00 NR -33.3683 52.4517 main 1068 1063 _____P________ -1 -33.3683 52.4517 99 3 199
1861052S08069 1861 9 SI MM NOT_NAMED 1861-03-01 06:00:00 NR -33.5000 52.4000 reunion main 1072 _____O________ -1 -33.5000 52.4000 99 9.90000 3 196

IBTrACS Databaseについて

本データベースは、米国NOAAが公開する1842年以降の世界の熱帯低気圧のベストトラックデータアーカイブInternational Best Track Archive for Climate Stewardship (IBTrACS)を、ウェブで閲覧しやすい形式に変換したものです。

最終更新日:2021-10-19